Time;durP1;ratioP1;P1;durP2;ratioP2;P2;SDS_P1;SDS_P2;PMS_P1;PMS_P2;Temp;Humidity;BMP_temperature;BMP_pressure;BME280_temperature;BME280_humidity;BME280_pressure;Samples;Min_cycle;Max_cycle;Signal;HPM_P1;HPM_P2
2022/06/21 00:01:16;;;;;;;1.63;1.23;;;;;;;15.39;97.33;100202.88;5017697;28;20214;-75
2022/06/21 00:03:42;;;;;;;1.53;1.43;;;;;;;15.36;97.39;100194.28;5000156;28;20217;-75
2022/06/21 00:06:11;;;;;;;1.40;1.30;;;;;;;15.36;97.68;100196.88;4995316;28;20183;-75
2022/06/21 00:08:37;;;;;;;5.53;1.50;;;;;;;15.30;98.15;100189.28;5005794;28;20573;-75
2022/06/21 00:11:09;;;;;;;2.20;1.20;;;;;;;15.28;97.85;100181.47;5001241;28;20194;-75
2022/06/21 00:13:34;;;;;;;1.50;1.30;;;;;;;15.26;98.31;100177.22;5000402;28;20211;-75
2022/06/21 00:16:03;;;;;;;1.40;1.30;;;;;;;15.23;98.95;100173.81;5002060;28;20214;-74
2022/06/21 00:18:31;;;;;;;2.60;1.43;;;;;;;15.23;99.67;100176.41;5017811;28;20180;-75
2022/06/21 00:20:58;;;;;;;1.67;1.40;;;;;;;15.22;99.86;100179.91;4996343;28;20674;-75
2022/06/21 00:23:27;;;;;;;1.60;1.50;;;;;;;15.20;99.92;100170.44;5015543;28;20221;-75
2022/06/21 00:25:53;;;;;;;1.87;1.30;;;;;;;15.22;99.69;100181.69;5004866;28;20877;-76
2022/06/21 00:28:19;;;;;;;1.50;1.40;;;;;;;15.16;100.00;100187.06;5004038;28;20194;-75
2022/06/21 00:30:47;;;;;;;1.67;1.50;;;;;;;15.19;100.00;100189.59;5003361;28;20302;-76
2022/06/21 00:33:15;;;;;;;3.53;1.40;;;;;;;15.19;100.00;100186.97;5024006;28;20304;-75
2022/06/21 00:35:44;;;;;;;1.80;1.33;;;;;;;15.15;100.00;100185.34;5000075;28;20185;-75
2022/06/21 00:38:13;;;;;;;1.47;1.37;;;;;;;15.15;100.00;100185.34;5006498;28;20200;-75
2022/06/21 00:40:38;;;;;;;2.20;1.30;;;;;;;15.12;100.00;100175.03;5003182;28;20266;-75
2022/06/21 00:43:04;;;;;;;2.40;1.50;;;;;;;15.13;100.00;100171.50;5003218;28;20930;-75
2022/06/21 00:45:32;;;;;;;1.40;1.20;;;;;;;15.13;99.99;100168.91;5006958;28;20195;-74
2022/06/21 00:48:02;;;;;;;1.50;1.33;;;;;;;15.08;99.52;100169.03;5007121;28;20186;-74
2022/06/21 00:50:35;;;;;;;2.00;1.30;;;;;;;15.01;98.34;100180.56;5006434;28;20258;-75
2022/06/21 00:53:25;;;;;;;1.67;1.37;;;;;;;14.96;97.84;100172.88;5005292;28;20226;-75
2022/06/21 00:55:56;;;;;;;2.50;1.20;;;;;;;14.91;98.30;100178.19;5004916;28;20191;-75
2022/06/21 00:58:26;;;;;;;3.07;1.20;;;;;;;14.89;98.47;100168.72;5004566;28;20188;-75
2022/06/21 01:01:24;;;;;;;1.70;1.47;;;;;;;14.91;98.67;100177.38;5005238;28;20233;-75
2022/06/21 01:03:56;;;;;;;1.23;1.13;;;;;;;14.89;99.08;100163.53;5001720;28;20208;-76
2022/06/21 01:06:32;;;;;;;2.43;1.30;;;;;;;14.89;99.70;100155.72;5000104;28;20633;-75
2022/06/21 01:09:08;;;;;;;1.40;1.30;;;;;;;14.92;100.00;100153.03;4997977;28;20186;-75
2022/06/21 01:11:41;;;;;;;2.60;1.30;;;;;;;14.96;99.98;100144.22;5000670;28;20281;-76
2022/06/21 01:14:08;;;;;;;1.67;1.40;;;;;;;14.95;99.31;100134.69;5021131;28;20211;-76
2022/06/21 01:16:36;;;;;;;1.40;1.30;;;;;;;14.95;99.17;100137.31;5007252;28;20655;-75
2022/06/21 01:19:07;;;;;;;1.50;1.33;;;;;;;14.92;98.84;100134.78;5005211;28;20179;-75
2022/06/21 01:21:36;;;;;;;3.07;1.33;;;;;;;14.87;98.94;100124.50;5020559;28;20693;-75
2022/06/21 01:24:13;;;;;;;1.97;1.70;;;;;;;14.86;99.24;100121.91;4998975;28;20290;-75
2022/06/21 01:26:38;;;;;;;1.37;1.27;;;;;;;14.86;98.68;100117.56;5004753;28;20272;-75
2022/06/21 01:29:09;;;;;;;1.30;1.20;;;;;;;14.87;98.46;100108.88;5022202;28;20663;-76
2022/06/21 01:31:34;;;;;;;1.50;1.10;;;;;;;14.80;98.95;100109.94;5000986;28;20178;-77
2022/06/21 01:34:00;;;;;;;1.60;1.40;;;;;;;14.84;98.12;100110.69;5006581;28;20682;-75
2022/06/21 01:36:33;;;;;;;2.17;1.50;;;;;;;14.81;98.33;100100.38;5006330;28;20188;-76
2022/06/21 01:39:09;;;;;;;2.13;1.10;;;;;;;14.79;97.14;100082.16;5004306;28;20183;-76
2022/06/21 01:41:48;;;;;;;2.60;1.40;;;;;;;14.80;96.40;100077.84;4999087;28;20216;-77
2022/06/21 01:44:18;;;;;;;3.43;1.30;;;;;;;14.78;96.79;100096.97;5004943;28;20206;-76
2022/06/21 01:46:45;;;;;;;1.27;1.10;;;;;;;14.81;96.06;100101.22;5000440;28;20190;-74
2022/06/21 01:49:16;;;;;;;1.43;1.20;;;;;;;14.81;94.45;100096.00;5002736;28;20215;-77
2022/06/21 01:51:53;;;;;;;1.27;1.00;;;;;;;14.86;93.90;100099.34;5002467;28;20192;-75
2022/06/21 01:54:23;;;;;;;2.50;1.37;;;;;;;14.84;94.37;100092.44;4997708;28;20222;-77
2022/06/21 01:56:49;;;;;;;1.73;1.30;;;;;;;14.76;94.97;100090.94;4999809;28;20185;-76
2022/06/21 01:59:23;;;;;;;1.17;1.10;;;;;;;14.76;94.52;100087.47;5003205;28;20543;-76
2022/06/21 02:02:06;;;;;;;1.37;1.20;;;;;;;14.78;94.41;100088.28;5003574;28;20691;-76
2022/06/21 02:04:36;;;;;;;1.30;1.20;;;;;;;14.77;94.33;100090.03;5009744;28;20220;-76
2022/06/21 02:07:07;;;;;;;1.90;1.10;;;;;;;14.77;95.89;100095.25;5005359;28;20176;-73
2022/06/21 02:09:46;;;;;;;1.30;1.20;;;;;;;14.85;95.70;100082.00;5020790;28;20183;-75
2022/06/21 02:12:14;;;;;;;2.63;1.20;;;;;;;14.84;96.17;100090.72;5003357;28;20553;-75
2022/06/21 02:14:47;;;;;;;1.53;1.27;;;;;;;14.82;96.91;100081.25;5003028;28;20192;-74
2022/06/21 02:17:21;;;;;;;2.03;1.37;;;;;;;14.81;97.10;100080.38;5004740;28;20202;-75
2022/06/21 02:19:57;;;;;;;1.33;1.20;;;;;;;14.78;97.97;100070.91;5003446;28;20268;-75
2022/06/21 02:22:26;;;;;;;1.57;1.30;;;;;;;14.77;98.32;100057.91;5015357;28;20300;-75
2022/06/21 02:24:52;;;;;;;1.30;1.20;;;;;;;14.77;99.11;100060.53;5002467;28;20194;-74
2022/06/21 02:27:21;;;;;;;1.97;1.33;;;;;;;14.76;99.05;100069.22;5021216;28;20179;-75
2022/06/21 02:29:51;;;;;;;1.50;1.20;;;;;;;14.76;98.79;100058.81;5002609;28;20183;-75
2022/06/21 02:32:25;;;;;;;1.33;1.23;;;;;;;14.76;99.14;100051.88;5009829;28;20233;-76
2022/06/21 02:34:55;;;;;;;3.03;1.47;;;;;;;14.76;98.46;100064.88;5012870;28;20176;-75
2022/06/21 02:37:23;;;;;;;2.17;1.40;;;;;;;14.76;98.32;100064.03;5004102;28;20670;-75
2022/06/21 02:39:49;;;;;;;3.13;1.40;;;;;;;14.76;98.61;100070.09;5003656;28;20204;-75
2022/06/21 02:42:25;;;;;;;1.33;1.23;;;;;;;14.79;98.34;100063.94;5003949;28;20579;-76
2022/06/21 02:44:56;;;;;;;2.60;1.50;;;;;;;14.81;98.73;100066.50;5004282;28;20184;-76
2022/06/21 02:47:29;;;;;;;1.30;1.20;;;;;;;14.80;98.87;100054.38;4999668;28;20197;-75
2022/06/21 02:50:24;;;;;;;1.40;1.30;;;;;;;14.80;98.87;100039.59;5017893;28;20207;-75
2022/06/21 02:52:53;;;;;;;1.53;1.30;;;;;;;14.79;99.50;100037.88;5000334;28;20240;-75
2022/06/21 02:55:31;;;;;;;2.07;1.43;;;;;;;14.77;99.12;100032.72;5000420;28;21004;-76
2022/06/21 02:58:12;;;;;;;1.23;1.13;;;;;;;14.74;98.94;100038.03;5005040;28;20189;-76
2022/06/21 03:00:38;;;;;;;1.80;1.40;;;;;;;14.73;99.16;100045.91;5017682;28;20550;-76
2022/06/21 03:03:05;;;;;;;1.20;1.00;;;;;;;14.74;98.55;100058.03;5019054;28;20535;-75
2022/06/21 03:05:33;;;;;;;3.27;1.40;;;;;;;14.71;98.11;100051.16;5020271;28;20186;-75
2022/06/21 03:08:03;;;;;;;1.80;1.60;;;;;;;14.71;98.21;100042.50;5005021;28;20191;-75
2022/06/21 03:10:42;;;;;;;4.93;1.60;;;;;;;14.70;98.74;100041.63;5001115;28;20234;-75
2022/06/21 03:13:19;;;;;;;2.63;1.47;;;;;;;14.69;98.68;100036.47;5004378;28;20236;-74
2022/06/21 03:15:49;;;;;;;2.17;1.20;;;;;;;14.71;98.26;100035.50;5019589;28;20176;-75
2022/06/21 03:18:22;;;;;;;2.47;1.53;;;;;;;14.73;98.41;100035.50;5002699;28;20742;-74
2022/06/21 03:20:49;;;;;;;2.17;1.40;;;;;;;14.76;98.77;100027.56;5004619;28;20922;-76
2022/06/21 03:23:15;;;;;;;2.67;1.40;;;;;;;14.75;98.73;100021.50;5006601;28;20214;-76
2022/06/21 03:25:48;;;;;;;1.80;1.27;;;;;;;14.77;98.75;100031.88;5005207;28;20172;-75
2022/06/21 03:28:34;;;;;;;2.27;1.70;;;;;;;14.81;99.04;100015.25;5002495;28;20215;-75
2022/06/21 03:31:18;;;;;;;1.80;1.50;;;;;;;14.82;98.33;100019.56;5017870;28;20229;-74
2022/06/21 03:33:47;;;;;;;1.37;1.27;;;;;;;14.82;98.64;100009.16;5022197;28;20210;-75
2022/06/21 03:36:16;;;;;;;1.70;1.30;;;;;;;14.83;99.12;99997.81;5015071;28;20188;-75
2022/06/21 03:38:46;;;;;;;4.70;1.80;;;;;;;14.90;98.78;100003.69;4995369;28;20585;-75
2022/06/21 03:44:03;;;;;;;1.83;1.50;;;;;;;15.02;98.32;99984.22;5003619;28;20219;-75
2022/06/21 03:47:05;;;;;;;2.33;1.40;;;;;;;15.11;97.70;99980.47;5003111;28;20181;-76
2022/06/21 03:49:57;;;;;;;2.73;1.50;;;;;;;15.17;97.19;99988.06;5000597;28;20199;-75
2022/06/21 03:52:42;;;;;;;3.13;1.50;;;;;;;15.29;97.03;99984.22;5002238;28;20207;-75
2022/06/21 03:55:39;;;;;;;1.60;1.50;;;;;;;15.58;95.41;99987.56;5007028;28;20186;-75
2022/06/21 03:58:46;;;;;;;1.50;1.30;;;;;;;15.98;93.65;99989.66;5003087;28;20742;-75
2022/06/21 04:01:17;;;;;;;1.37;1.23;;;;;;;16.31;92.04;99991.06;5019673;28;20223;-76
2022/06/21 04:03:52;;;;;;;2.10;1.37;;;;;;;16.71;89.65;99988.69;4999590;28;20243;-76
2022/06/21 04:06:29;;;;;;;1.53;1.27;;;;;;;17.14;88.80;99978.31;4999376;28;20190;-76
2022/06/21 04:09:04;;;;;;;1.63;1.07;;;;;;;17.23;87.52;99984.94;5005030;28;20191;-75
2022/06/21 04:11:44;;;;;;;1.63;1.23;;;;;;;17.09;87.57;99978.50;5004092;28;20182;-76
2022/06/21 04:14:36;;;;;;;2.30;1.30;;;;;;;16.95;88.11;99973.84;5005678;28;20207;-76
2022/06/21 04:17:19;;;;;;;2.37;1.60;;;;;;;16.95;88.28;99989.53;5012200;28;20196;-75
2022/06/21 04:19:51;;;;;;;3.87;1.80;;;;;;;16.98;88.06;99970.25;5000558;28;20196;-75
2022/06/21 04:22:25;;;;;;;1.60;1.30;;;;;;;17.40;85.96;99971.97;5008180;28;20207;-76
2022/06/21 04:24:52;;;;;;;2.77;1.40;;;;;;;17.95;84.38;99981.81;5007894;28;20195;-76
2022/06/21 04:27:31;;;;;;;2.67;1.20;;;;;;;17.94;84.03;99974.03;5006912;28;20742;-76
2022/06/21 04:30:11;;;;;;;2.40;1.60;;;;;;;17.83;84.78;99982.34;5005675;28;20238;-75
2022/06/21 04:32:45;;;;;;;5.83;1.63;;;;;;;17.74;85.26;99974.91;5006735;28;20223;-75
2022/06/21 04:35:20;;;;;;;1.90;1.40;;;;;;;17.75;85.47;99969.59;5008504;28;20264;-75
2022/06/21 04:37:53;;;;;;;2.93;1.40;;;;;;;17.68;84.98;99974.25;5014412;28;20185;-75
2022/06/21 04:40:24;;;;;;;2.60;1.63;;;;;;;17.67;85.80;99976.97;5005961;28;20733;-75
2022/06/21 04:43:02;;;;;;;4.23;1.70;;;;;;;17.68;85.81;99971.66;5006510;28;20285;-75
2022/06/21 04:45:35;;;;;;;4.23;1.70;;;;;;;17.63;86.13;99973.59;5000579;28;20235;-75
2022/06/21 04:48:24;;;;;;;3.00;1.60;;;;;;;17.62;86.51;99971.91;5005888;28;20184;-74
2022/06/21 04:51:03;;;;;;;3.00;1.50;;;;;;;17.89;86.41;99970.75;5006409;28;20184;-75
2022/06/21 04:53:58;;;;;;;5.77;1.67;;;;;;;18.31;85.22;99967.13;4996982;28;20720;-75
2022/06/21 04:56:52;;;;;;;3.93;1.73;;;;;;;19.00;83.08;99973.53;5006412;28;21045;-75
2022/06/21 04:59:34;;;;;;;4.13;1.63;;;;;;;19.71;80.33;99968.25;4994915;28;20211;-76
2022/06/21 05:02:01;;;;;;;6.33;1.77;;;;;;;20.14;78.48;99968.59;5019625;28;20216;-75
2022/06/21 05:04:31;;;;;;;6.63;2.07;;;;;;;20.39;78.21;99969.91;5009034;28;20647;-77
2022/06/21 05:07:01;;;;;;;4.50;2.13;;;;;;;20.98;77.13;99966.66;5006593;28;20187;-76
2022/06/21 05:09:30;;;;;;;4.40;1.60;;;;;;;21.52;74.15;99957.38;4992482;28;20723;-76
2022/06/21 05:12:07;;;;;;;7.87;2.00;;;;;;;21.61;73.69;99954.22;5005440;28;20279;-77
2022/06/21 05:14:39;;;;;;;1.90;1.30;;;;;;;22.20;72.37;99959.38;5023346;28;20542;-76
2022/06/21 05:17:10;;;;;;;5.73;1.70;;;;;;;22.18;72.97;99960.41;5015224;28;20212;-76
2022/06/21 05:19:40;;;;;;;2.33;1.40;;;;;;;21.76;73.53;99962.97;5001317;28;20188;-75
2022/06/21 05:22:15;;;;;;;4.13;1.43;;;;;;;21.20;74.76;99968.03;5008703;28;20200;-76
2022/06/21 05:24:40;;;;;;;2.47;1.20;;;;;;;20.44;76.96;99969.66;5008130;28;20180;-76
2022/06/21 05:27:22;;;;;;;2.07;1.50;;;;;;;19.89;78.10;99969.09;5008259;28;20694;-76
2022/06/21 05:29:51;;;;;;;4.07;1.80;;;;;;;20.02;77.97;99970.13;5004990;28;20299;-76
2022/06/21 05:32:24;;;;;;;2.43;1.57;;;;;;;20.49;76.74;99975.50;5024929;28;20200;-76
2022/06/21 05:34:53;;;;;;;1.97;1.37;;;;;;;20.99;75.08;99981.50;5024325;28;20536;-76
2022/06/21 05:37:36;;;;;;;3.80;1.53;;;;;;;21.48;72.79;99985.69;5030676;28;20529;-76
2022/06/21 05:40:12;;;;;;;4.43;1.50;;;;;;;21.52;73.04;99976.66;5003596;28;20259;-76
2022/06/21 05:42:38;;;;;;;2.87;1.50;;;;;;;21.30;73.74;99982.34;5004624;28;20212;-75
2022/06/21 05:45:12;;;;;;;5.80;2.00;;;;;;;21.41;73.65;99989.59;5000706;28;20724;-77
2022/06/21 05:47:45;;;;;;;2.93;1.53;;;;;;;21.77;72.85;99991.88;4987060;28;20189;-76
2022/06/21 05:50:18;;;;;;;2.23;1.10;;;;;;;22.96;70.31;99996.78;4996991;28;20215;-77
2022/06/21 05:52:47;;;;;;;7.27;1.70;;;;;;;23.52;68.69;99985.19;4995504;28;20546;-76
2022/06/21 05:55:22;;;;;;;2.03;1.40;;;;;;;23.97;67.99;99991.84;5004331;28;20708;-76
2022/06/21 05:57:52;;;;;;;6.13;1.47;;;;;;;24.02;67.27;99997.66;5012419;28;20188;-75
2022/06/21 06:00:30;;;;;;;3.17;1.23;;;;;;;24.30;66.70;100014.22;5006103;28;20184;-76
2022/06/21 06:03:04;;;;;;;2.20;1.40;;;;;;;24.01;66.68;100012.66;5007288;28;20204;-76
2022/06/21 06:05:31;;;;;;;2.67;1.60;;;;;;;24.08;66.91;99999.03;5009192;28;20180;-76
2022/06/21 06:08:06;;;;;;;5.23;1.50;;;;;;;23.85;67.17;100009.38;5006193;28;20192;-75
2022/06/21 06:10:33;;;;;;;12.00;2.63;;;;;;;22.90;69.87;99998.97;5004922;28;20179;-74
2022/06/21 06:13:03;;;;;;;3.27;1.70;;;;;;;22.60;70.89;99990.28;5007777;28;20683;-76
2022/06/21 06:15:38;;;;;;;3.67;1.70;;;;;;;23.06;70.49;99977.69;5003902;28;20184;-75
2022/06/21 06:18:30;;;;;;;3.07;1.20;;;;;;;23.82;68.76;99973.44;5020222;28;20179;-76
2022/06/21 06:21:12;;;;;;;1.83;1.30;;;;;;;25.39;66.19;99989.50;4993939;28;22205;-76
2022/06/21 06:23:44;;;;;;;3.47;1.50;;;;;;;26.19;62.72;99994.06;5016399;28;20239;-76
2022/06/21 06:26:16;;;;;;;3.67;1.30;;;;;;;27.17;61.44;99982.59;5001934;28;20262;-76
2022/06/21 06:28:44;;;;;;;4.20;1.53;;;;;;;27.82;59.38;99992.22;5008175;28;20613;-76
2022/06/21 06:31:15;;;;;;;3.10;1.37;;;;;;;28.27;59.28;99986.53;5006065;28;20266;-76
2022/06/21 06:33:45;;;;;;;1.30;0.97;;;;;;;28.69;57.74;99984.63;5007576;28;20246;-75
2022/06/21 06:36:15;;;;;;;2.10;1.40;;;;;;;29.36;57.11;99992.78;5009783;28;20270;-76
2022/06/21 06:38:41;;;;;;;4.73;1.83;;;;;;;29.52;56.91;99999.34;5021753;28;20260;-75
2022/06/21 06:41:31;;;;;;;4.37;1.40;;;;;;;28.85;57.21;100002.75;5021403;28;20358;-76
2022/06/21 06:44:01;;;;;;;4.60;1.53;;;;;;;27.91;60.12;99998.56;5006184;28;20704;-76
2022/06/21 06:46:42;;;;;;;3.03;1.30;;;;;;;26.59;63.99;100001.47;5010354;28;20183;-75
2022/06/21 06:49:29;;;;;;;2.60;1.40;;;;;;;25.40;65.72;100004.44;4999407;28;20271;-76
2022/06/21 06:52:05;;;;;;;2.17;1.30;;;;;;;24.22;67.41;100008.63;5018654;28;20639;-76
2022/06/21 06:54:52;;;;;;;2.40;1.50;;;;;;;24.02;67.90;100009.06;5024429;28;20670;-76
2022/06/21 06:57:32;;;;;;;3.63;1.57;;;;;;;23.31;68.99;99999.81;5000402;28;20189;-74
2022/06/21 07:00:00;;;;;;;2.47;1.37;;;;;;;22.97;69.82;99987.03;5005220;28;20196;-76
2022/06/21 07:02:34;;;;;;;3.10;1.50;;;;;;;22.18;71.04;99987.59;5005445;28;20218;-75
2022/06/21 07:05:13;;;;;;;2.07;1.40;;;;;;;21.86;72.53;99968.53;5001038;28;20195;-75
2022/06/21 07:07:47;;;;;;;4.23;1.67;;;;;;;22.34;71.78;99950.59;5020736;28;20319;-75
2022/06/21 07:10:18;;;;;;;3.23;1.70;;;;;;;22.44;72.02;99935.06;4998155;28;20188;-76
2022/06/21 07:12:44;;;;;;;6.27;2.07;;;;;;;22.58;70.30;99923.59;5025271;28;20216;-75
2022/06/21 07:15:11;;;;;;;5.97;2.00;;;;;;;22.33;70.79;99905.88;5006832;28;20588;-75
2022/06/21 07:17:39;;;;;;;5.50;2.00;;;;;;;22.52;70.89;99887.94;5009080;28;20199;-75
2022/06/21 07:20:13;;;;;;;6.53;1.90;;;;;;;22.74;71.02;99875.13;5008391;28;20258;-76
2022/06/21 07:22:39;;;;;;;2.50;1.43;;;;;;;22.44;72.84;99877.06;5006420;28;20714;-75
2022/06/21 07:25:12;;;;;;;4.30;2.13;;;;;;;22.42;74.11;99865.78;5006899;28;20203;-76
2022/06/21 07:27:41;;;;;;;4.90;2.23;;;;;;;22.13;75.77;99864.97;5002441;28;20686;-76
2022/06/21 07:30:13;;;;;;;8.37;2.50;;;;;;;22.20;76.56;99888.19;5001181;28;20189;-75
2022/06/21 07:32:47;;;;;;;3.73;1.90;;;;;;;22.38;76.21;99904.66;5003817;28;20295;-75
2022/06/21 07:35:24;;;;;;;4.50;1.73;;;;;;;22.72;74.69;99930.63;5004611;28;20191;-76
2022/06/21 07:37:54;;;;;;;2.13;1.60;;;;;;;22.78;73.85;99947.84;5008973;28;20253;-76
2022/06/21 07:40:33;;;;;;;3.47;1.80;;;;;;;23.66;72.52;99970.19;5018579;28;20185;-76
2022/06/21 07:43:07;;;;;;;3.50;1.47;;;;;;;24.27;70.03;99972.13;5001167;28;20602;-75
2022/06/21 07:45:52;;;;;;;2.43;1.57;;;;;;;24.45;69.51;99952.28;4999821;28;20192;-76
2022/06/21 07:48:43;;;;;;;2.60;1.90;;;;;;;24.64;68.24;99964.19;5006944;28;20280;-76
2022/06/21 07:51:19;;;;;;;2.97;1.73;;;;;;;25.05;67.41;99951.47;5001898;28;20193;-76
2022/06/21 07:53:49;;;;;;;5.07;1.83;;;;;;;25.23;66.83;99944.81;5008260;28;20687;-76
2022/06/21 07:56:19;;;;;;;4.17;2.03;;;;;;;25.67;66.32;99937.06;5008730;28;20184;-75
2022/06/21 07:58:55;;;;;;;4.20;1.67;;;;;;;25.51;65.23;99926.81;5006569;28;20180;-76
2022/06/21 08:07:25;;;;;;;3.33;1.97;;;;;;;25.49;65.89;99904.06;5003180;28;20714;-75
2022/06/21 08:10:09;;;;;;;4.03;1.60;;;;;;;25.26;66.03;99891.59;4996189;28;20200;-76
2022/06/21 08:12:35;;;;;;;4.10;1.93;;;;;;;24.62;67.73;99905.25;5013150;28;20559;-76
2022/06/21 08:15:03;;;;;;;2.53;1.87;;;;;;;24.66;68.09;99910.19;5016346;28;20204;-76
2022/06/21 08:17:43;;;;;;;6.53;2.20;;;;;;;24.43;68.86;99911.88;5003456;28;20198;-76
2022/06/21 08:20:21;;;;;;;7.83;2.57;;;;;;;24.00;70.64;99915.81;5007270;28;20588;-76
2022/06/21 08:23:01;;;;;;;3.73;2.10;;;;;;;24.13;70.31;99920.22;5009850;28;20227;-75
2022/06/21 08:25:45;;;;;;;3.47;1.90;;;;;;;24.55;69.59;99930.44;5009118;28;20703;-76
2022/06/21 08:28:21;;;;;;;4.13;1.90;;;;;;;24.86;68.64;99922.91;5008935;28;20177;-76
2022/06/21 08:30:52;;;;;;;2.97;1.60;;;;;;;24.93;68.14;99919.69;5009788;28;20267;-75
2022/06/21 08:33:23;;;;;;;4.63;1.90;;;;;;;25.19;67.73;99902.78;4999271;28;20204;-75
2022/06/21 08:36:00;;;;;;;3.77;2.70;;;;;;;25.18;67.74;99903.75;5016376;28;20277;-76
2022/06/21 08:38:31;;;;;;;3.93;2.00;;;;;;;25.30;68.24;99899.31;5025485;28;20660;-76
2022/06/21 08:41:51;;;;;;;3.87;1.90;;;;;;;25.63;67.38;99884.44;4986399;28;20203;-76
2022/06/21 08:44:08;;;;;;;4.60;2.00;;;;;;;26.04;66.45;99888.25;5004907;28;20679;-74
2022/06/21 08:46:56;;;;;;;6.03;1.90;;;;;;;26.45;66.45;99896.47;5004208;28;20184;-75
2022/06/21 08:49:46;;;;;;;3.57;2.03;;;;;;;26.45;65.87;99883.22;5024710;28;20196;-75
2022/06/21 08:52:23;;;;;;;8.20;2.20;;;;;;;26.25;66.13;99882.16;5010856;28;20333;-75
2022/06/21 08:55:12;;;;;;;3.17;2.00;;;;;;;25.75;67.91;99878.16;5024478;28;20199;-75
2022/06/21 08:57:46;;;;;;;5.00;2.07;;;;;;;25.90;68.40;99867.31;5006041;28;20695;-76
2022/06/21 09:00:55;;;;;;;2.57;2.37;;;;;;;25.39;71.97;99886.22;5006936;28;20195;-77
2022/06/21 09:03:45;;;;;;;4.20;2.63;;;;;;;25.14;73.38;99878.47;4998356;28;20220;-76
2022/06/21 09:06:30;;;;;;;2.80;2.50;;;;;;;25.16;73.97;99865.94;5008944;28;20195;-75
2022/06/21 09:09:04;;;;;;;6.77;3.10;;;;;;;25.41;72.93;99856.94;5010963;28;20581;-75
2022/06/21 09:12:10;;;;;;;5.47;2.57;;;;;;;25.43;71.56;99855.06;5000974;28;20278;-76
2022/06/21 09:14:53;;;;;;;4.83;2.23;;;;;;;25.76;70.58;99861.31;5011979;28;20195;-76
2022/06/21 09:17:43;;;;;;;4.47;2.60;;;;;;;25.76;70.79;99853.34;5002480;28;20213;-75
2022/06/21 09:20:38;;;;;;;4.43;2.50;;;;;;;25.65;72.33;99856.00;5007693;28;21097;-76
2022/06/21 09:23:16;;;;;;;4.13;2.90;;;;;;;25.75;72.68;99856.97;4993793;28;20227;-75
2022/06/21 09:26:17;;;;;;;6.03;2.90;;;;;;;25.66;73.16;99871.78;5006973;28;20219;-76
2022/06/21 09:29:20;;;;;;;4.07;3.17;;;;;;;25.97;72.46;99858.72;5018872;28;20231;-75
2022/06/21 09:31:48;;;;;;;4.30;3.90;;;;;;;26.05;74.96;99859.91;5013867;28;20678;-76
2022/06/21 09:34:31;;;;;;;4.70;4.20;;;;;;;25.79;75.53;99857.56;5004567;28;20196;-75
2022/06/21 09:37:18;;;;;;;4.20;3.90;;;;;;;26.00;75.13;99855.84;4989124;28;20181;-76
2022/06/21 09:39:54;;;;;;;4.10;3.80;;;;;;;26.21;74.60;99848.94;5005172;28;20181;-76
2022/06/21 09:42:38;;;;;;;3.80;3.50;;;;;;;26.01;75.11;99859.31;5004563;28;20220;-75
2022/06/21 09:45:12;;;;;;;3.80;3.50;;;;;;;26.06;75.40;99841.25;5002434;28;20212;-75
2022/06/21 09:47:38;;;;;;;5.10;4.03;;;;;;;26.19;75.17;99849.03;5006785;28;20183;-76
2022/06/21 09:50:48;;;;;;;4.27;3.97;;;;;;;26.44;75.06;99849.69;5007101;28;20584;-76
2022/06/21 09:53:44;;;;;;;4.80;4.40;;;;;;;26.48;74.84;99838.69;5020335;28;20223;-75
2022/06/21 09:56:29;;;;;;;4.27;3.97;;;;;;;26.58;74.82;99837.91;5000695;28;20860;-76
2022/06/21 09:59:20;;;;;;;4.30;4.00;;;;;;;26.66;74.42;99838.13;5002510;28;20216;-76
2022/06/21 10:01:58;;;;;;;4.60;4.10;;;;;;;26.47;75.06;99841.50;5005300;28;20208;-76
2022/06/21 10:04:36;;;;;;;4.07;3.57;;;;;;;26.57;75.35;99839.75;5004656;28;20192;-76
2022/06/21 10:07:07;;;;;;;4.43;4.13;;;;;;;26.52;75.06;99844.56;5006109;28;20661;-75
2022/06/21 10:10:01;;;;;;;4.40;4.00;;;;;;;26.53;75.07;99838.31;5008064;28;20275;-76
2022/06/21 10:12:39;;;;;;;5.47;4.23;;;;;;;26.62;75.21;99831.38;5008762;28;20287;-76
2022/06/21 10:15:21;;;;;;;4.50;4.20;;;;;;;26.87;74.86;99835.50;5025241;28;20673;-76
2022/06/21 10:18:05;;;;;;;5.97;4.30;;;;;;;26.80;75.17;99838.81;5011956;28;20191;-75
2022/06/21 10:20:48;;;;;;;4.50;4.10;;;;;;;26.63;75.32;99820.63;5019036;28;20180;-76
2022/06/21 10:23:50;;;;;;;5.07;4.67;;;;;;;26.57;75.57;99818.50;5009915;28;20219;-75
2022/06/21 10:26:54;;;;;;;5.30;4.07;;;;;;;26.51;75.81;99818.19;5014697;28;20198;-76
2022/06/21 10:29:48;;;;;;;5.03;4.63;;;;;;;26.74;74.95;99813.59;5008578;28;20180;-76
2022/06/21 10:32:26;;;;;;;4.87;4.40;;;;;;;26.65;74.34;99806.38;5011241;28;20176;-75
2022/06/21 10:35:06;;;;;;;4.27;3.97;;;;;;;26.75;74.55;99804.66;5006225;28;20196;-75
2022/06/21 10:37:37;;;;;;;4.63;4.23;;;;;;;26.88;74.37;99800.03;5017699;28;20176;-76
2022/06/21 10:40:32;;;;;;;5.27;4.37;;;;;;;26.71;74.59;99792.63;5006783;28;20184;-75
2022/06/21 10:42:57;;;;;;;4.83;4.43;;;;;;;26.78;75.04;99799.94;5002239;28;20729;-76
2022/06/21 10:45:51;;;;;;;4.77;4.37;;;;;;;26.92;74.71;99819.16;5005155;28;20184;-75
2022/06/21 10:48:47;;;;;;;4.60;4.13;;;;;;;26.89;74.23;99816.78;5011540;28;20213;-76
2022/06/21 10:51:40;;;;;;;4.87;4.47;;;;;;;27.10;73.72;99816.75;5014485;28;20258;-76
2022/06/21 10:54:24;;;;;;;4.37;3.97;;;;;;;26.78;73.45;99823.81;5017704;28;20226;-76
2022/06/21 10:57:19;;;;;;;4.93;4.53;;;;;;;26.81;73.53;99816.59;5009508;28;20212;-76
2022/06/21 11:03:25;;;;;;;4.30;4.00;;;;;;;27.04;73.47;99806.66;5018443;28;20227;-75
2022/06/21 11:06:09;;;;;;;5.17;4.67;;;;;;;27.10;73.10;99806.13;5004025;28;20193;-76
2022/06/21 11:09:03;;;;;;;4.87;4.43;;;;;;;27.16;73.80;99802.09;5004993;28;20196;-75
2022/06/21 11:11:55;;;;;;;6.23;4.70;;;;;;;27.44;72.93;99795.22;5012088;28;20176;-76
2022/06/21 11:14:26;;;;;;;4.70;4.30;;;;;;;27.44;72.82;99786.41;5007525;28;20223;-75
2022/06/21 11:17:15;;;;;;;4.87;4.40;;;;;;;27.47;72.60;99788.81;5011695;28;20206;-76
2022/06/21 11:19:59;;;;;;;4.73;4.37;;;;;;;27.70;72.45;99776.13;5003269;28;20601;-76
2022/06/21 11:22:39;;;;;;;8.63;5.60;;;;;;;27.85;72.14;99773.91;5018319;28;20310;-76
2022/06/21 11:25:24;;;;;;;5.30;4.80;;;;;;;27.80;71.97;99763.72;5003234;28;20585;-75
2022/06/21 11:27:56;;;;;;;5.10;4.70;;;;;;;27.70;71.85;99762.84;5006525;28;20184;-76
2022/06/21 11:30:45;;;;;;;4.97;4.47;;;;;;;27.71;72.23;99763.69;5005897;28;20566;-76
2022/06/21 11:33:29;;;;;;;5.00;4.60;;;;;;;28.01;71.66;99744.09;5005294;28;20216;-76
2022/06/21 11:36:06;;;;;;;6.37;4.80;;;;;;;27.94;71.77;99748.31;4995174;28;20249;-75
2022/06/21 11:38:41;;;;;;;4.80;4.40;;;;;;;28.01;71.31;99753.91;4997349;28;20215;-75
2022/06/21 11:42:04;;;;;;;4.57;4.27;;;;;;;28.25;70.60;99762.31;4999765;28;20268;-75
2022/06/21 11:44:25;;;;;;;4.23;3.80;;;;;;;28.36;69.95;99766.66;5002718;28;20231;-77
2022/06/21 11:47:02;;;;;;;4.40;3.80;;;;;;;28.32;69.12;99757.28;5009047;28;20194;-75
2022/06/21 11:49:40;;;;;;;4.17;3.77;;;;;;;28.57;68.83;99755.00;4995945;28;20959;-76
2022/06/21 11:52:35;;;;;;;6.10;3.87;;;;;;;28.32;68.11;99745.81;5003164;28;20607;-76
2022/06/21 11:55:24;;;;;;;3.60;3.20;;;;;;;28.18;67.68;99747.06;5004237;28;20231;-76
2022/06/21 11:57:58;;;;;;;4.30;3.87;;;;;;;28.39;67.72;99746.91;5001653;28;20214;-76
2022/06/21 12:00:32;;;;;;;5.37;3.93;;;;;;;28.62;67.23;99727.94;5000833;28;20202;-76
2022/06/21 12:03:00;;;;;;;3.77;3.43;;;;;;;28.66;66.57;99735.50;5005150;28;20298;-76
2022/06/21 12:05:44;;;;;;;5.37;3.73;;;;;;;28.00;67.80;99729.13;5003740;28;20184;-76
2022/06/21 12:08:12;;;;;;;12.30;4.47;;;;;;;27.72;68.08;99726.31;5002191;28;20621;-76
2022/06/21 12:11:10;;;;;;;4.27;3.87;;;;;;;28.00;67.81;99715.84;5004565;28;20177;-77
2022/06/21 12:14:06;;;;;;;5.07;3.83;;;;;;;28.21;66.56;99714.88;4990297;28;20219;-76
2022/06/21 12:16:50;;;;;;;5.10;3.33;;;;;;;27.97;66.07;99705.50;5012656;28;20347;-75
2022/06/21 12:19:28;;;;;;;7.07;3.83;;;;;;;27.84;66.66;99703.94;5008665;28;20187;-76
2022/06/21 12:22:28;;;;;;;6.97;3.60;;;;;;;27.99;66.42;99683.09;5004455;28;20208;-76
2022/06/21 12:24:54;;;;;;;5.53;3.77;;;;;;;28.01;67.33;99685.59;5004704;28;20628;-77
2022/06/21 12:27:20;;;;;;;4.07;3.47;;;;;;;28.19;67.02;99680.44;5010084;28;20189;-75